createdAt,value
2022-12-13T00:02:07.489Z,15.05
2022-12-13T00:04:37.468Z,14.38
2022-12-13T00:07:07.429Z,15.13
2022-12-13T00:09:38.495Z,14.45
2022-12-13T00:12:08.447Z,14.82
2022-12-13T00:14:38.432Z,15.13
2022-12-13T00:17:09.262Z,14.45
2022-12-13T00:19:39.340Z,14.73
2022-12-13T00:22:09.222Z,14.80
2022-12-13T00:24:42.938Z,15.90
2022-12-13T00:27:16.032Z,15.52
2022-12-13T00:29:45.899Z,16.05
2022-12-13T00:32:15.834Z,15.80
2022-12-13T00:34:45.784Z,15.30
2022-12-13T00:37:15.745Z,15.43
2022-12-13T00:39:45.620Z,15.65
2022-12-13T00:42:15.514Z,15.82
2022-12-13T00:44:45.441Z,17.55
2022-12-13T00:47:15.389Z,17.27
2022-12-13T00:49:45.291Z,18.42
2022-12-13T00:52:15.517Z,17.52
2022-12-13T00:54:45.419Z,17.02
2022-12-13T00:57:15.440Z,15.82
2022-12-13T00:59:45.298Z,16.55
2022-12-13T01:02:15.316Z,16.55
2022-12-13T01:04:45.338Z,16.70
2022-12-13T01:07:15.249Z,16.23
2022-12-13T01:09:45.299Z,15.57
2022-12-13T01:12:15.348Z,15.80
2022-12-13T01:14:45.292Z,17.33
2022-12-13T01:17:15.924Z,16.88
2022-12-13T01:19:45.913Z,17.05
2022-12-13T01:22:15.823Z,16.23
2022-12-13T01:24:45.684Z,16.33
2022-12-13T01:27:15.584Z,16.67
2022-12-13T01:29:45.470Z,16.65
2022-12-13T01:32:15.324Z,16.45
2022-12-13T01:34:45.259Z,17.13
2022-12-13T01:37:15.100Z,17.42
2022-12-13T01:39:44.992Z,16.25
2022-12-13T01:42:17.100Z,17.63
2022-12-13T01:45:08.167Z,17.70
2022-12-13T01:47:47.873Z,15.23
2022-12-13T01:50:28.673Z,16.42
2022-12-13T01:53:00.188Z,15.63
2022-12-13T01:55:41.489Z,15.88
2022-12-13T01:58:12.303Z,16.05
2022-12-13T02:00:43.557Z,15.68
2022-12-13T02:03:21.231Z,16.42
2022-12-13T02:06:04.634Z,16.13
2022-12-13T02:08:36.042Z,15.80
2022-12-13T02:11:07.323Z,16.92
2022-12-13T02:13:36.849Z,16.38
2022-12-13T02:16:40.604Z,15.60
2022-12-13T02:19:50.054Z,16.83
2022-12-13T02:22:53.133Z,16.33
2022-12-13T02:26:01.346Z,16.40
2022-12-13T02:29:10.349Z,14.60
2022-12-13T02:32:04.654Z,15.32
2022-12-13T02:34:58.930Z,15.20
2022-12-13T02:37:55.064Z,15.73
2022-12-13T02:40:40.106Z,15.55
2022-12-13T02:43:16.659Z,15.57
2022-12-13T02:45:56.233Z,15.13
2022-12-13T02:48:32.021Z,15.82
2022-12-13T02:51:04.558Z,16.73
2022-12-13T02:53:36.119Z,15.60
2022-12-13T02:56:06.093Z,14.88
2022-12-13T02:58:39.684Z,15.32
2022-12-13T03:01:41.693Z,16.52
2022-12-13T03:04:37.762Z,14.63
2022-12-13T03:07:27.813Z,15.27
2022-12-13T03:10:10.477Z,16.35
2022-12-13T03:13:16.146Z,15.07
2022-12-13T03:16:24.861Z,14.93
2022-12-13T03:18:57.191Z,14.35
2022-12-13T03:21:28.195Z,14.00
2022-12-13T03:23:58.060Z,14.55
2022-12-13T03:26:28.915Z,14.50
2022-12-13T03:28:58.818Z,14.55
2022-12-13T03:31:28.824Z,14.93
2022-12-13T03:33:58.774Z,14.35
2022-12-13T03:36:29.263Z,15.70
2022-12-13T03:38:59.310Z,14.65
2022-12-13T03:41:34.492Z,15.90
2022-12-13T03:44:09.562Z,14.85
2022-12-13T03:46:39.699Z,14.23
2022-12-13T03:49:13.594Z,14.68
2022-12-13T03:51:47.173Z,15.00
2022-12-13T03:54:17.153Z,15.02
2022-12-13T03:56:47.038Z,14.30
2022-12-13T03:59:17.004Z,14.63
2022-12-13T04:01:46.877Z,14.18
2022-12-13T04:04:16.839Z,15.38
2022-12-13T04:06:46.753Z,15.15
2022-12-13T04:09:16.661Z,13.20
2022-12-13T04:12:06.185Z,14.27
2022-12-13T04:14:36.060Z,12.95
2022-12-13T04:17:05.943Z,14.70
2022-12-13T04:19:35.867Z,13.52
2022-12-13T04:22:06.159Z,14.55
2022-12-13T04:24:35.683Z,13.85
2022-12-13T04:27:05.469Z,13.40
2022-12-13T04:29:35.181Z,13.88
2022-12-13T04:32:26.395Z,14.30
2022-12-13T04:35:01.018Z,13.50
2022-12-13T04:37:31.960Z,15.13
2022-12-13T04:40:01.586Z,15.57
2022-12-13T04:42:31.217Z,13.75
2022-12-13T04:45:00.925Z,13.35
2022-12-13T04:47:30.463Z,13.30
2022-12-13T04:50:00.151Z,13.55
2022-12-13T04:52:29.823Z,14.27
2022-12-13T04:54:59.352Z,13.60
2022-12-13T04:57:29.024Z,14.40
2022-12-13T04:59:58.611Z,13.48
2022-12-13T05:02:28.385Z,13.00
2022-12-13T05:04:57.939Z,12.27
2022-12-13T05:07:28.938Z,13.05
2022-12-13T05:09:58.545Z,11.82
2022-12-13T05:12:28.143Z,13.18
2022-12-13T05:14:57.856Z,12.15
2022-12-13T05:17:27.424Z,13.27
2022-12-13T05:19:57.261Z,11.98
2022-12-13T05:22:28.416Z,11.38
2022-12-13T05:24:58.361Z,12.27
2022-12-13T05:27:28.321Z,13.30
2022-12-13T05:30:02.857Z,12.18
2022-12-13T05:32:43.895Z,12.30
2022-12-13T05:35:21.655Z,13.32
2022-12-13T05:37:55.098Z,12.32
2022-12-13T05:40:29.982Z,11.48
2022-12-13T05:43:01.987Z,13.15
2022-12-13T05:45:34.272Z,11.48
2022-12-13T05:48:04.328Z,12.15
2022-12-13T05:50:34.247Z,11.32
2022-12-13T05:53:05.542Z,12.93
2022-12-13T05:55:35.699Z,13.18
2022-12-13T05:58:05.668Z,13.68
2022-12-13T06:00:43.353Z,14.20
2022-12-13T06:03:13.351Z,12.85
2022-12-13T06:05:45.496Z,12.02
2022-12-13T06:08:24.588Z,12.75
2022-12-13T06:11:09.995Z,12.27
2022-12-13T06:13:42.821Z,11.80
2022-12-13T06:16:22.468Z,12.05
2022-12-13T06:19:03.129Z,11.43
2022-12-13T06:21:41.457Z,11.68
2022-12-13T06:24:22.504Z,11.63
2022-12-13T06:26:53.273Z,10.90
2022-12-13T06:29:25.754Z,11.73
2022-12-13T06:32:02.417Z,10.93
2022-12-13T06:34:35.568Z,11.43
2022-12-13T06:37:09.599Z,11.38
2022-12-13T06:39:39.631Z,10.98
2022-12-13T06:42:22.397Z,11.52
2022-12-13T06:44:56.021Z,11.57
2022-12-13T06:47:31.752Z,11.82
2022-12-13T06:50:05.461Z,10.85
2022-12-13T06:52:36.295Z,11.85
2022-12-13T06:55:06.939Z,11.13
2022-12-13T06:57:37.054Z,11.18
2022-12-13T07:00:08.213Z,11.85
2022-12-13T07:02:39.671Z,11.48
2022-12-13T07:05:10.148Z,11.10
2022-12-13T07:07:40.048Z,11.65
2022-12-13T07:10:21.586Z,11.73
2022-12-13T07:12:51.892Z,11.70
2022-12-13T07:15:21.761Z,10.43
2022-12-13T07:17:54.754Z,12.02
2022-12-13T07:20:25.187Z,10.75
2022-12-13T07:22:59.210Z,10.48
2022-12-13T07:25:30.112Z,11.10
2022-12-13T07:28:05.367Z,11.50
2022-12-13T07:30:42.461Z,11.68
2022-12-13T07:33:13.035Z,11.60
2022-12-13T07:35:55.412Z,11.43
2022-12-13T07:38:25.591Z,12.05
2022-12-13T07:40:59.795Z,11.13
2022-12-13T07:43:30.839Z,11.75
2022-12-13T07:46:07.214Z,12.85
2022-12-13T07:48:37.410Z,11.75
2022-12-13T07:51:13.531Z,12.23
2022-12-13T07:53:43.990Z,12.80
2022-12-13T07:56:14.643Z,12.10
2022-12-13T07:58:45.771Z,13.23
2022-12-13T08:01:15.741Z,12.75
2022-12-13T08:03:45.682Z,11.68
2022-12-13T08:06:15.726Z,12.32
2022-12-13T08:08:45.590Z,13.00
2022-12-13T08:11:19.892Z,11.93
2022-12-13T08:13:49.863Z,13.25
2022-12-13T08:16:26.188Z,12.30
2022-12-13T08:19:03.313Z,13.45
2022-12-13T08:22:01.292Z,12.13
2022-12-13T08:24:33.292Z,12.60
2022-12-13T08:27:05.001Z,12.75
2022-12-13T08:29:36.391Z,12.38
2022-12-13T08:32:14.690Z,12.68
2022-12-13T08:34:44.642Z,12.02
2022-12-13T08:37:15.397Z,14.00
2022-12-13T08:39:46.313Z,12.05
2022-12-13T08:42:20.068Z,11.95
2022-12-13T08:44:53.221Z,12.73
2022-12-13T08:47:26.543Z,12.10
2022-12-13T08:50:01.818Z,12.45
2022-12-13T08:52:39.311Z,13.23
2022-12-13T08:55:15.662Z,12.75
2022-12-13T08:57:46.516Z,13.35
2022-12-13T09:00:21.533Z,12.55
2022-12-13T09:02:52.320Z,13.20
2022-12-13T09:05:32.997Z,12.80
2022-12-13T09:08:24.105Z,11.98
2022-12-13T09:11:10.520Z,13.18
2022-12-13T09:13:43.847Z,12.48
2022-12-13T09:16:23.233Z,12.70
2022-12-13T09:18:56.932Z,14.27
2022-12-13T09:21:31.510Z,13.68
2022-12-13T09:24:03.005Z,14.30
2022-12-13T09:26:37.954Z,14.10
2022-12-13T09:29:10.533Z,13.00
2022-12-13T09:31:42.114Z,14.20
2022-12-13T09:34:12.956Z,13.73
2022-12-13T09:36:43.823Z,13.95
2022-12-13T09:39:13.910Z,13.85
2022-12-13T09:41:53.668Z,14.95
2022-12-13T09:44:48.186Z,14.48
2022-12-13T09:47:47.116Z,13.90
2022-12-13T09:50:28.193Z,15.20
2022-12-13T09:53:00.273Z,13.70
2022-12-13T09:55:36.383Z,14.27
2022-12-13T09:58:16.018Z,14.07
2022-12-13T10:00:46.975Z,14.88
2022-12-13T10:03:18.485Z,14.93
2022-12-13T10:06:01.802Z,13.82
2022-12-13T10:08:40.237Z,14.15
2022-12-13T10:11:13.761Z,13.60
2022-12-13T10:14:05.609Z,13.52
2022-12-13T10:16:51.370Z,13.73
2022-12-13T10:19:46.293Z,14.40
2022-12-13T10:22:21.572Z,14.85
2022-12-13T10:25:06.809Z,13.82
2022-12-13T10:27:47.912Z,14.55
2022-12-13T10:30:28.763Z,14.10
2022-12-13T10:33:05.432Z,14.73
2022-12-13T10:35:43.067Z,14.38
2022-12-13T10:38:32.512Z,14.77
2022-12-13T10:41:02.911Z,13.63
2022-12-13T10:43:33.738Z,16.20
2022-12-13T10:46:05.521Z,14.85
2022-12-13T10:48:48.902Z,15.23
2022-12-13T10:51:23.338Z,14.95
2022-12-13T10:54:00.281Z,15.05
2022-12-13T10:56:42.824Z,14.85
2022-12-13T10:59:33.733Z,15.52
2022-12-13T11:02:22.484Z,15.45
2022-12-13T11:04:53.411Z,17.38
2022-12-13T11:07:33.111Z,17.40
2022-12-13T11:10:27.960Z,20.10
2022-12-13T11:13:07.374Z,19.67
2022-12-13T11:15:40.384Z,20.95
2022-12-13T11:18:26.063Z,19.52
2022-12-13T11:21:09.475Z,19.90
2022-12-13T11:23:47.635Z,19.48
2022-12-13T11:26:24.012Z,19.17
2022-12-13T11:29:29.447Z,21.97
2022-12-13T11:32:22.757Z,21.08
2022-12-13T11:35:15.229Z,18.52
2022-12-13T11:38:24.515Z,18.30
2022-12-13T11:41:31.138Z,18.05
2022-12-13T11:44:11.434Z,19.40
2022-12-13T11:46:53.618Z,17.90
2022-12-13T11:49:44.471Z,18.08
2022-12-13T11:52:53.287Z,19.33
2022-12-13T11:55:38.834Z,18.33
2022-12-13T12:01:42.040Z,23.10
2022-12-13T12:04:53.718Z,21.27
2022-12-13T12:08:21.002Z,23.58
2022-12-13T12:10:49.788Z,22.73
2022-12-13T12:13:26.577Z,20.50
2022-12-13T12:16:28.246Z,21.13
2022-12-13T12:19:01.793Z,19.63
2022-12-13T12:22:15.091Z,24.13
2022-12-13T12:25:09.633Z,25.25
2022-12-13T12:28:08.755Z,24.63
2022-12-13T12:31:11.787Z,29.45
2022-12-13T12:34:12.524Z,27.08
2022-12-13T12:37:11.577Z,24.35
2022-12-13T12:40:07.672Z,23.52
2022-12-13T12:43:16.456Z,26.15
2022-12-13T12:46:25.532Z,24.27
2022-12-13T12:49:34.366Z,27.92
2022-12-13T12:52:39.168Z,25.33
2022-12-13T12:55:35.805Z,25.25
2022-12-13T12:58:44.648Z,26.10
2022-12-13T13:01:53.618Z,26.63
2022-12-13T13:04:29.244Z,25.88
2022-12-13T13:07:23.145Z,26.52
2022-12-13T13:09:55.747Z,24.27
2022-12-13T13:12:29.500Z,25.13
2022-12-13T13:15:00.715Z,26.50
2022-12-13T13:17:49.826Z,25.27
2022-12-13T13:20:30.095Z,27.83
2022-12-13T13:23:38.785Z,28.45
2022-12-13T13:26:23.450Z,29.58
2022-12-13T13:28:47.519Z,28.23
2022-12-13T13:31:17.764Z,27.98
2022-12-13T13:33:53.148Z,27.45
2022-12-13T13:36:50.262Z,27.45
2022-12-13T13:39:22.185Z,28.33
2022-12-13T13:42:19.217Z,25.88
2022-12-13T13:45:03.400Z,27.83
2022-12-13T13:47:42.939Z,27.42
2022-12-13T13:50:51.812Z,26.98
2022-12-13T13:53:57.593Z,25.95
2022-12-13T13:56:55.197Z,27.73
2022-12-13T14:00:03.850Z,25.88
2022-12-13T14:03:22.214Z,28.05
2022-12-13T14:06:32.586Z,27.33
2022-12-13T14:09:41.705Z,28.35
2022-12-13T14:12:50.390Z,29.45
2022-12-13T14:15:59.433Z,27.77
2022-12-13T14:19:08.222Z,29.02
2022-12-13T14:22:04.074Z,28.67
2022-12-13T14:25:12.799Z,28.95
2022-12-13T14:28:04.485Z,28.90
2022-12-13T14:30:35.135Z,28.58
2022-12-13T14:33:05.128Z,29.58
2022-12-13T14:35:36.075Z,29.67
2022-12-13T14:38:08.395Z,29.13
2022-12-13T14:40:49.324Z,28.77
2022-12-13T14:43:33.635Z,27.33
2022-12-13T14:46:06.342Z,27.33
2022-12-13T14:48:47.784Z,26.17
2022-12-13T14:51:39.523Z,26.35
2022-12-13T14:54:16.895Z,25.48
2022-12-13T14:57:06.714Z,25.35
2022-12-13T14:59:36.682Z,24.75
2022-12-13T15:02:08.693Z,23.33
2022-12-13T15:04:39.501Z,23.15
2022-12-13T15:07:15.241Z,24.35
2022-12-13T15:09:47.765Z,23.75
2022-12-13T15:12:24.233Z,25.55
2022-12-13T15:15:08.241Z,23.77
2022-12-13T15:17:40.457Z,25.40
2022-12-13T15:20:32.198Z,24.52
2022-12-13T15:23:09.477Z,22.77
2022-12-13T15:25:40.336Z,23.88
2022-12-13T15:28:18.168Z,24.27
2022-12-13T15:30:50.557Z,24.85
2022-12-13T15:33:34.420Z,24.60
2022-12-13T15:36:20.795Z,23.02
2022-12-13T15:39:03.279Z,22.95
2022-12-13T15:41:44.467Z,24.80
2022-12-13T15:44:25.535Z,24.23
2022-12-13T15:47:10.299Z,27.05
2022-12-13T15:50:03.648Z,25.77
2022-12-13T15:52:48.559Z,23.70
2022-12-13T15:55:28.999Z,23.85
2022-12-13T15:58:00.500Z,23.23
2022-12-13T16:00:33.058Z,23.38
2022-12-13T16:03:16.659Z,24.50
2022-12-13T16:05:56.640Z,23.70
2022-12-13T16:08:37.317Z,24.80
2022-12-13T16:11:08.830Z,24.52
2022-12-13T16:13:40.335Z,24.88
2022-12-13T16:16:31.893Z,24.20
2022-12-13T16:19:03.218Z,26.50
2022-12-13T16:21:32.784Z,22.98
2022-12-13T16:24:02.331Z,24.33
2022-12-13T16:26:33.068Z,24.25
2022-12-13T16:29:02.884Z,24.45
2022-12-13T16:31:37.116Z,23.48
2022-12-13T16:34:08.735Z,23.88
2022-12-13T16:36:38.513Z,22.63
2022-12-13T16:39:12.183Z,22.98
2022-12-13T16:41:48.033Z,21.95
2022-12-13T16:44:42.909Z,21.67
2022-12-13T16:47:22.154Z,22.10
2022-12-13T16:50:04.395Z,21.60
2022-12-13T16:52:34.284Z,21.30
2022-12-13T16:55:04.235Z,22.02
2022-12-13T16:57:33.971Z,21.63
2022-12-13T17:00:03.710Z,21.88
2022-12-13T17:02:33.322Z,21.08
2022-12-13T17:05:02.942Z,20.38
2022-12-13T17:07:37.158Z,20.85
2022-12-13T17:10:07.089Z,20.23
2022-12-13T17:12:36.659Z,21.38
2022-12-13T17:15:06.831Z,21.30
2022-12-13T17:17:38.282Z,21.13
2022-12-13T17:20:10.760Z,21.42
2022-12-13T17:22:40.673Z,21.45
2022-12-13T17:25:11.083Z,20.77
2022-12-13T17:27:42.052Z,20.65
2022-12-13T17:30:16.818Z,20.40
2022-12-13T17:32:46.792Z,20.50
2022-12-13T17:35:18.286Z,19.73
2022-12-13T17:37:49.524Z,21.40
2022-12-13T17:40:19.876Z,20.35
2022-12-13T17:42:53.737Z,19.38
2022-12-13T17:45:24.769Z,18.45
2022-12-13T17:47:54.730Z,20.40
2022-12-13T17:50:24.644Z,21.05
2022-12-13T17:52:54.555Z,21.38
2022-12-13T17:55:24.539Z,21.73
2022-12-13T17:57:56.499Z,19.70
2022-12-13T18:00:27.438Z,20.50
2022-12-13T18:02:57.374Z,20.70
2022-12-13T18:05:27.963Z,21.05
2022-12-13T18:07:57.915Z,21.98
2022-12-13T18:10:30.085Z,21.40
2022-12-13T18:13:00.641Z,21.90
2022-12-13T18:15:30.338Z,21.55
2022-12-13T18:18:15.426Z,20.88
2022-12-13T18:20:46.088Z,20.55
2022-12-13T18:23:16.375Z,20.48
2022-12-13T18:25:46.155Z,20.40
2022-12-13T18:28:15.924Z,20.88
2022-12-13T18:30:45.626Z,20.98
2022-12-13T18:33:15.339Z,21.73
2022-12-13T18:35:45.152Z,20.27
2022-12-13T18:38:15.570Z,20.58
2022-12-13T18:40:45.799Z,19.27
2022-12-13T18:43:15.718Z,20.10
2022-12-13T18:45:45.979Z,19.83
2022-12-13T18:48:16.176Z,19.65
2022-12-13T18:50:48.919Z,18.23
2022-12-13T18:53:19.008Z,20.60
2022-12-13T18:55:48.912Z,20.10
2022-12-13T18:58:18.993Z,19.73
2022-12-13T19:00:49.071Z,19.13
2022-12-13T19:03:19.173Z,19.52
2022-12-13T19:05:49.149Z,20.02
2022-12-13T19:08:18.890Z,19.70
2022-12-13T19:10:49.766Z,20.35
2022-12-13T19:13:19.433Z,20.52
2022-12-13T19:15:49.082Z,18.85
2022-12-13T19:18:18.738Z,20.65
2022-12-13T19:20:55.323Z,19.92
2022-12-13T19:23:25.235Z,19.40
2022-12-13T19:25:55.367Z,21.83
2022-12-13T19:28:25.324Z,21.63
2022-12-13T19:30:55.065Z,20.23
2022-12-13T19:33:24.978Z,20.10
2022-12-13T19:35:54.853Z,20.67
2022-12-13T19:38:25.416Z,21.25
2022-12-13T19:40:55.900Z,21.33
2022-12-13T19:43:26.279Z,20.52
2022-12-13T19:45:56.460Z,20.80
2022-12-13T19:48:26.496Z,20.08
2022-12-13T19:51:01.944Z,19.95
2022-12-13T19:53:32.722Z,20.40
2022-12-13T19:56:02.940Z,21.15
2022-12-13T19:58:32.940Z,18.15
2022-12-13T20:01:06.988Z,19.42
2022-12-13T20:03:43.252Z,20.30
2022-12-13T20:06:15.072Z,19.75
2022-12-13T20:08:45.259Z,18.77
2022-12-13T20:11:20.725Z,19.10
2022-12-13T20:13:51.906Z,20.63
2022-12-13T20:16:24.354Z,21.90
2022-12-13T20:18:59.824Z,19.08
2022-12-13T20:21:30.868Z,20.70
2022-12-13T20:24:00.925Z,19.83
2022-12-13T20:26:32.953Z,20.58
2022-12-13T20:29:02.648Z,20.10
2022-12-13T20:31:35.345Z,19.17
2022-12-13T20:34:08.349Z,18.83
2022-12-13T20:36:38.485Z,19.08
2022-12-13T20:39:09.758Z,19.85
2022-12-13T20:41:40.207Z,20.92
2022-12-13T20:44:11.355Z,18.38
2022-12-13T20:46:41.408Z,18.30
2022-12-13T20:49:11.846Z,19.67
2022-12-13T20:51:43.431Z,19.77
2022-12-13T20:54:13.160Z,19.10
2022-12-13T20:56:42.968Z,19.42
2022-12-13T20:59:14.966Z,20.35
2022-12-13T21:01:48.905Z,19.65
2022-12-13T21:04:19.159Z,18.10
2022-12-13T21:06:48.749Z,20.40
2022-12-13T21:09:18.587Z,18.13
2022-12-13T21:11:51.545Z,19.95
2022-12-13T21:14:31.814Z,18.38
2022-12-13T21:17:03.957Z,19.90
2022-12-13T21:19:39.357Z,19.30
2022-12-13T21:22:10.356Z,19.60
2022-12-13T21:24:40.278Z,19.38
2022-12-13T21:27:10.227Z,19.33
2022-12-13T21:29:40.201Z,19.92
2022-12-13T21:32:10.641Z,20.50
2022-12-13T21:34:41.498Z,19.88
2022-12-13T21:37:11.492Z,21.80
2022-12-13T21:39:42.153Z,20.95
2022-12-13T21:42:12.308Z,21.27
2022-12-13T21:44:42.276Z,21.17
2022-12-13T21:47:13.205Z,21.60
2022-12-13T21:49:48.695Z,22.08
2022-12-13T21:52:19.256Z,22.38
2022-12-13T21:54:52.780Z,23.30
2022-12-13T21:57:45.296Z,22.27
2022-12-13T22:00:16.160Z,22.65
2022-12-13T22:02:47.119Z,22.05
2022-12-13T22:05:17.059Z,22.70
2022-12-13T22:07:48.241Z,21.80
2022-12-13T22:10:17.911Z,21.08
2022-12-13T22:12:47.587Z,22.00
2022-12-13T22:15:17.997Z,21.25
2022-12-13T22:17:47.611Z,20.83
2022-12-13T22:20:17.877Z,21.27
2022-12-13T22:22:50.123Z,21.13
2022-12-13T22:25:20.504Z,22.35
2022-12-13T22:27:50.133Z,22.13
2022-12-13T22:30:19.862Z,22.60
2022-12-13T22:32:49.550Z,21.35
2022-12-13T22:35:19.196Z,22.02
2022-12-13T22:37:51.743Z,21.05
2022-12-13T22:40:23.096Z,20.65
2022-12-13T22:42:53.352Z,22.67
2022-12-13T22:45:23.239Z,23.55
2022-12-13T22:47:53.187Z,24.42
2022-12-13T22:50:23.170Z,24.92
2022-12-13T22:52:53.105Z,25.92
2022-12-13T22:55:23.185Z,25.88
2022-12-13T22:57:53.395Z,25.30
2022-12-13T23:00:23.439Z,27.67
2022-12-13T23:02:56.278Z,27.20
2022-12-13T23:05:26.256Z,26.48
2022-12-13T23:07:56.205Z,27.40
2022-12-13T23:10:45.464Z,26.25
2022-12-13T23:13:18.044Z,28.38
2022-12-13T23:15:49.441Z,27.75
2022-12-13T23:18:19.277Z,27.88
2022-12-13T23:20:49.059Z,28.38
2022-12-13T23:23:18.716Z,27.10
2022-12-13T23:25:48.954Z,26.45
2022-12-13T23:28:18.884Z,29.73
2022-12-13T23:30:48.533Z,29.30
2022-12-13T23:33:18.177Z,28.75
2022-12-13T23:35:47.889Z,28.23
2022-12-13T23:38:17.476Z,28.48
2022-12-13T23:40:48.204Z,26.75
2022-12-13T23:43:18.445Z,28.30
2022-12-13T23:45:48.395Z,27.73
2022-12-13T23:48:22.364Z,28.75
2022-12-13T23:50:55.804Z,29.60
2022-12-13T23:53:26.131Z,29.20
2022-12-13T23:55:56.109Z,32.03
2022-12-13T23:58:27.670Z,31.98
